Terminal Aerodrome Forecast
Issued by NWS

Home | Current Version | Previous Version | Text Only | Print | Product List | Glossary On
Versions: 1 2 3 4 5 6 7 8 9 10 11 12 13 14 15 16 17
000
FTUS42 KFFC 300532
TAFRYY
TAF
KRYY 300532Z 3006/3106 18007KT P6SM SCT015 BKN045
     FM300900 20009KT P6SM VCSH SCT012 OVC040
     FM301000 22010KT 6SM -SHRA SCT007 BKN012
     FM301200 24009KT P6SM VCSH OVC007
     FM301400 28008KT P6SM SCT007 BKN012
     FM301600 30008KT P6SM OVC035
     FM301800 31010KT P6SM SCT035
     FM310000 31005KT P6SM SKC
      AMD NOT SKED TIL 301200=

USA.gov is the U.S. government's official web portal to all federal, state and local government web resources and services.